Weather observations for the past three days for
Brookings, Brookings Municipal Airport
Metric (Imperial)
Date Time (cdt) Wind (kph) Vis. (km) Weather Sky Cond. Temperature (ºC) Relative Humidity Wind Chill (°C) Heat Index (°C) Pressure Precipitation (cm)
Air Dwpt 6 hour altimeter (cm) sea level (mb) 1 hr 3 hr 6 hr
Max. Min.
06 11:56 S 9 16.09 Mostly Cloudy FEW024 BKN065 26.7 22.8 79% 29 76.3 1017.2
06 10:56 S 15 14.48 Overcast OVC013 25.6 23.3 87% 27 76.28 1016.9
06 09:56 S 15 14.48 Overcast OVC009 25 23.3 90% 26 76.3 1016.9
06 08:56 SE 17 12.87 Overcast OVC007 24.4 23.3 94% 24 76.25 1016.4
06 07:56 SE 15 9.66 Fog/Mist OVC007 23.9 23.3 96% 23 76.28 1016.5
06 06:56 SE 15 9.66 Fog/Mist OVC005 23.9 22.8 23.9 22.2 94% 23 76.2 1015.5
06 05:56 SE 15 11.27 Overcast OVC005 23.3 22.8 97% 76.2 1015.4
06 04:56 SE 17 9.66 Fog/Mist OVC005 23.3 22.8 97% 76.2 1015.4
06 03:56 SE 19 11.27 Overcast OVC005 23.3 22.8 97% 76.23 1015.6
06 02:56 SE 17 12.87 Partly Cloudy SCT007 22.8 21.7 94% 76.15 1015.0
06 01:56 SE 22 16.09 Fair CLR 22.8 21.7 94% 76.17 1015.0
06 00:56 SE 15 16.09 Fair CLR 22.8 21.1 30 22.8 90% 76.2 1015.6
05 23:56 SE 15 16.09 Fair CLR 22.8 20.6 87% 76.23 1015.9
05 22:56 SE 20 16.09 Fair CLR 23.3 20.6 85% 76.23 1016.0
05 21:56 SE 19 16.09 Fair CLR 24.4 20 77% 25 76.2 1015.7
05 20:56 SE 17 16.09 Fair CLR 25 19.4 71% 26 76.15 1015.2
05 19:56 SE 17 16.09 Fair CLR 27.2 18.9 61% 28 76.15 1014.9
05 18:56 SE 24 16.09 Fair CLR 30 18.9 31.7 28.3 51% 31 76.07 1013.8
05 17:56 S 19 16.09 Fair CLR 31.1 18.9 48% 32 76.07 1013.7
05 16:56 S 20 16.09 Fair CLR 31.7 18.3 45% 33 76.07 1013.6
05 15:56 SE 22 16.09 Fair CLR 31.1 17.8 45% 32 76.07 1013.5
05 14:56 SE 20 16.09 Fair CLR 30.6 18.3 48% 32 76.05 1013.4
05 12:56 SE 22 16.09 Fair CLR 28.3 17.2 28.3 21.1 51% 29 76.12 1014.5
05 11:56 SE 22 16.09 Fair CLR 26.7 17.8 58% 28 76.1 1014.4
05 10:56 SE 19 16.09 Fair CLR 24.4 17.2 64% 25 76.12 1014.6
05 09:56 SE 19 16.09 Fair CLR 22.8 16.1 66% 76.12 1014.8
05 08:56 SE 31 G 50 16.09 Fair CLR 22.8 15 62% 76.05 1013.8
05 07:56 S 26 16.09 Fair CLR 22.2 16.1 68% 76.23 1016.0
05 06:56 SE 15 14.48 Rain FEW041 BKN070 OVC085 21.7 16.7 25 21.7 73% 76.33 1017.4 0.3 0.36
05 05:56 SW 24 G 35 16.09 Thunderstorm in Vicinity Light Rain FEW070 OVC095 23.9 20.6 82% 24 76.3 1016.8 0.05
05 04:56 E 7 16.09 Light Rain FEW016 SCT110 22.2 21.1 94% 76.17 1015.1
05 03:56 SE 22 16.09 Fair CLR 23.3 21.1 88% 76.12 1014.5
05 02:56 E 22 16.09 Mostly Cloudy BKN007 23.3 22.2 94% 76.05 1013.5
05 01:56 E 13 16.09 Overcast OVC005 22.8 21.1 90% 76.15 1014.7
05 00:56 E 13 16.09 Fair CLR 22.2 20.6 29.4 21.1 91% 76.15 1014.8
04 23:56 E 9 16.09 Fair CLR 22.8 20.6 87% 76.12 1014.3
04 22:56 E 11 16.09 Fair CLR 23.3 20.6 85% 76.12 1014.4
04 21:56 E 17 16.09 Fair CLR 23.9 20.6 82% 24 76.1 1014.3
04 20:56 E 17 16.09 Fair CLR 25.6 20.6 74% 27 76.05 1013.8
04 19:56 E 13 16.09 Fair CLR 27.2 20 65% 29 76.02 1013.3
04 18:56 E 19 16.09 Fair CLR 29.4 20 32.2 29.4 57% 31 76 1012.9
04 17:56 E 24 16.09 Fair CLR 30.6 18.3 48% 32 76 1012.9
04 16:56 E 17 16.09 Fair CLR 31.7 17.2 42% 32 76.02 1013.2
04 15:56 E 13 16.09 Fair CLR 31.7 16.7 41% 32 76.02 1013.3
04 14:56 E 11 16.09 Fair CLR 32.2 16.1 38% 32 76.02 1013.0
04 13:56 E 17 16.09 Fair CLR 32.2 12.8 31% 31 76.05 1013.4
04 12:56 E 20 16.09 Fair CLR 31.7 15.6 31.7 20 38% 31 76.05 1013.3
04 11:56 E 22 16.09 Fair CLR 31.1 16.1 40% 31 76.02 1013.0
04 10:56 NE 9 16.09 Fair CLR 28.9 20 59% 31 76.02 1013.0
04 09:56 N 6 16.09 Fair CLR 25 20.6 77% 26 76 1012.9
04 08:56 Calm 16.09 Fair CLR 23.9 20 79% 24 75.97 1012.4
04 07:56 Calm 14.48 Fair CLR 20.6 19.4 93% 75.95 1012.2
04 06:56 NE 11 14.48 Fair CLR 20 18.9 22.8 17.8 93% 75.9 1011.6
04 05:56 NE 13 4.83 Fog/Mist CLR 19.4 19.4 100% 75.87 1011.0
04 04:56 Calm 12.87 Fair CLR 18.9 18.3 96% 75.84 1010.7
04 03:56 Calm 16.09 Fair CLR 18.9 17.8 93% 75.79 1010.2
04 02:56 E 6 16.09 Fair CLR 21.7 20 90% 75.79 1009.9
04 01:56 SE 9 16.09 Fair CLR 22.2 20.6 91% 75.79 1010.1
04 00:56 SE 9 16.09 Fair CLR 22.2 20.6 31.1 22.2 91% 75.79 1010.1
03 23:56 SE 7 16.09 Fair CLR 23.3 20.6 85% 75.77 1009.7
03 22:56 SE 13 16.09 Fair CLR 23.9 20.6 82% 24 75.74 1009.6
03 21:56 S 11 16.09 Fair CLR 26.1 20.6 72% 28 75.72 1008.9
03 20:56 S 17 14.48 Fair CLR 27.8 21.1 67% 30 75.67 1008.3
03 19:56 SE 11 16.09 Fair CLR 28.9 21.7 65% 32 75.62 1007.6
03 18:56 S 11 16.09 Fair CLR 31.1 21.1 33.3 29.4 55% 34 75.59 1007.4
03 17:56 S 22 16.09 Fair CLR 31.7 19.4 48% 33 75.59 1007.2
03 16:56 S 26 16.09 Fair CLR 32.2 20 48% 34 75.57 1006.7
03 15:56 S 20 16.09 Fair CLR 32.8 20.6 49% 36 75.54 1006.4
03 14:56 S 24 16.09 Fair CLR 31.1 22.2 59% 35 75.54 1006.6
03 13:56 S 26 G 39 16.09 Fair CLR 31.1 21.7 57% 34 75.59 1007.1
03 12:56 SE 15 16.09 Fair CLR 29.4 21.7 29.4 21.7 63% 32 75.57 1007.1
Date Time (cdt) Wind (kph) Vis. (km) Weather Sky Cond. Air Dwpt Max. Min. Relative Humidity Wind Chill (°C) Heat Index (°C) altimeter (cm) sea level (mb) 1 hr 3 hr 6 hr
6 hour
Temperature (ºC) Pressure Precipitation (cm)